Terminal Aerodrome Forecast
Issued by NWS

Home | Current Version | Previous Version | Text Only | Print | Product List | Glossary On
Versions: 1 2 3 4 5 6 7 8 9 10 11 12 13 14
401
FTUS44 KTSA 260520
TAFXNA
TAF
KXNA 260520Z 2606/2706 16010KT P6SM SCT250
     FM261300 19012G20KT P6SM BKN025
     FM262000 19015G23KT P6SM BKN025
     FM270000 19008KT P6SM BKN025=

USA.gov is the U.S. government's official web portal to all federal, state and local government web resources and services.